sensor_id;sensor_type;location;lat;lon;timestamp;pressure;altitude;pressure_sealevel;temperature;humidity
53514;BME280;39768;54.148;12.174;2023-01-26T00:00:49;102322.06;;;1.30;100.00
53514;BME280;39768;54.148;12.174;2023-01-26T00:04:51;102321.47;;;1.18;100.00
53514;BME280;39768;54.148;12.174;2023-01-26T00:08:54;102313.63;;;1.18;100.00
53514;BME280;39768;54.148;12.174;2023-01-26T00:12:56;102316.28;;;1.37;100.00
53514;BME280;39768;54.148;12.174;2023-01-26T00:16:57;102297.94;;;1.73;100.00
53514;BME280;39768;54.148;12.174;2023-01-26T00:21:00;102286.91;;;1.61;100.00
53514;BME280;39768;54.148;12.174;2023-01-26T00:25:03;102294.19;;;1.31;100.00
53514;BME280;39768;54.148;12.174;2023-01-26T00:29:04;102282.84;;;1.50;100.00
53514;BME280;39768;54.148;12.174;2023-01-26T00:33:06;102297.88;;;1.54;100.00
53514;BME280;39768;54.148;12.174;2023-01-26T00:37:07;102292.22;;;1.82;100.00
53514;BME280;39768;54.148;12.174;2023-01-26T00:41:09;102291.72;;;1.71;100.00
53514;BME280;39768;54.148;12.174;2023-01-26T00:45:34;102278.84;;;1.38;100.00
53514;BME280;39768;54.148;12.174;2023-01-26T00:49:38;102269.91;;;1.53;100.00
53514;BME280;39768;54.148;12.174;2023-01-26T00:53:40;102263.97;;;1.74;100.00
53514;BME280;39768;54.148;12.174;2023-01-26T00:57:41;102263.00;;;1.72;100.00
53514;BME280;39768;54.148;12.174;2023-01-26T01:01:43;102262.44;;;1.80;100.00
53514;BME280;39768;54.148;12.174;2023-01-26T01:05:47;102250.75;;;1.71;100.00
53514;BME280;39768;54.148;12.174;2023-01-26T01:09:49;102264.59;;;1.69;100.00
53514;BME280;39768;54.148;12.174;2023-01-26T01:13:50;102250.91;;;1.74;100.00
53514;BME280;39768;54.148;12.174;2023-01-26T01:17:52;102254.38;;;1.56;100.00
53514;BME280;39768;54.148;12.174;2023-01-26T01:21:53;102255.28;;;1.56;100.00
53514;BME280;39768;54.148;12.174;2023-01-26T01:25:56;102250.84;;;1.55;100.00
53514;BME280;39768;54.148;12.174;2023-01-26T01:29:58;102260.81;;;1.62;100.00
53514;BME280;39768;54.148;12.174;2023-01-26T01:34:00;102251.28;;;1.64;100.00
53514;BME280;39768;54.148;12.174;2023-01-26T01:38:01;102240.97;;;1.50;100.00
53514;BME280;39768;54.148;12.174;2023-01-26T01:42:03;102230.13;;;1.60;100.00
53514;BME280;39768;54.148;12.174;2023-01-26T01:46:16;102230.22;;;1.61;100.00
53514;BME280;39768;54.148;12.174;2023-01-26T01:50:20;102226.97;;;1.67;100.00
53514;BME280;39768;54.148;12.174;2023-01-26T01:54:29;102234.75;;;1.65;100.00
53514;BME280;39768;54.148;12.174;2023-01-26T01:58:35;102226.34;;;1.72;100.00
53514;BME280;39768;54.148;12.174;2023-01-26T02:02:38;102227.94;;;1.69;100.00
53514;BME280;39768;54.148;12.174;2023-01-26T02:06:45;102233.44;;;1.56;100.00
53514;BME280;39768;54.148;12.174;2023-01-26T02:10:49;102223.38;;;1.65;100.00
53514;BME280;39768;54.148;12.174;2023-01-26T02:14:54;102214.97;;;1.16;100.00
53514;BME280;39768;54.148;12.174;2023-01-26T02:18:57;102208.22;;;1.21;100.00
53514;BME280;39768;54.148;12.174;2023-01-26T02:23:18;102200.97;;;1.33;100.00
53514;BME280;39768;54.148;12.174;2023-01-26T02:27:21;102184.66;;;1.38;100.00
53514;BME280;39768;54.148;12.174;2023-01-26T02:31:24;102190.69;;;1.74;100.00
53514;BME280;39768;54.148;12.174;2023-01-26T02:35:27;102188.34;;;1.61;100.00
53514;BME280;39768;54.148;12.174;2023-01-26T02:43:39;102174.97;;;1.55;100.00
53514;BME280;39768;54.148;12.174;2023-01-26T02:47:41;102170.13;;;1.64;100.00
53514;BME280;39768;54.148;12.174;2023-01-26T02:51:42;102169.13;;;1.61;100.00
53514;BME280;39768;54.148;12.174;2023-01-26T02:55:44;102170.50;;;1.72;100.00
53514;BME280;39768;54.148;12.174;2023-01-26T02:59:45;102167.66;;;1.87;100.00
53514;BME280;39768;54.148;12.174;2023-01-26T03:03:47;102174.53;;;1.65;100.00
53514;BME280;39768;54.148;12.174;2023-01-26T03:07:49;102174.47;;;1.64;100.00
53514;BME280;39768;54.148;12.174;2023-01-26T03:11:53;102176.00;;;1.59;100.00
53514;BME280;39768;54.148;12.174;2023-01-26T03:15:54;102161.16;;;1.40;100.00
53514;BME280;39768;54.148;12.174;2023-01-26T03:19:56;102162.63;;;1.33;100.00
53514;BME280;39768;54.148;12.174;2023-01-26T03:24:16;102161.66;;;1.70;100.00
53514;BME280;39768;54.148;12.174;2023-01-26T03:28:39;102159.50;;;2.00;100.00
53514;BME280;39768;54.148;12.174;2023-01-26T03:32:40;102157.41;;;1.72;100.00
53514;BME280;39768;54.148;12.174;2023-01-26T03:36:47;102149.84;;;1.78;100.00
53514;BME280;39768;54.148;12.174;2023-01-26T03:40:51;102140.66;;;1.68;100.00
53514;BME280;39768;54.148;12.174;2023-01-26T03:45:11;102150.66;;;1.58;100.00
53514;BME280;39768;54.148;12.174;2023-01-26T03:49:33;102152.69;;;1.65;100.00
53514;BME280;39768;54.148;12.174;2023-01-26T03:53:53;102143.41;;;1.71;100.00
53514;BME280;39768;54.148;12.174;2023-01-26T03:58:13;102149.47;;;1.51;100.00
53514;BME280;39768;54.148;12.174;2023-01-26T04:02:16;102155.75;;;1.55;100.00
53514;BME280;39768;54.148;12.174;2023-01-26T04:06:38;102150.19;;;1.47;100.00
53514;BME280;39768;54.148;12.174;2023-01-26T04:10:59;102149.13;;;1.44;100.00
53514;BME280;39768;54.148;12.174;2023-01-26T04:15:00;102146.38;;;1.60;100.00
53514;BME280;39768;54.148;12.174;2023-01-26T04:19:20;102137.97;;;1.67;100.00
53514;BME280;39768;54.148;12.174;2023-01-26T04:23:41;102138.88;;;1.48;100.00
53514;BME280;39768;54.148;12.174;2023-01-26T04:27:42;102139.28;;;1.57;100.00
53514;BME280;39768;54.148;12.174;2023-01-26T04:31:44;102142.16;;;1.63;100.00
53514;BME280;39768;54.148;12.174;2023-01-26T04:35:49;102142.72;;;1.75;100.00
53514;BME280;39768;54.148;12.174;2023-01-26T04:39:51;102129.00;;;1.81;100.00
53514;BME280;39768;54.148;12.174;2023-01-26T04:43:54;102117.63;;;1.81;100.00
53514;BME280;39768;54.148;12.174;2023-01-26T04:47:57;102127.84;;;1.74;100.00
53514;BME280;39768;54.148;12.174;2023-01-26T04:51:59;102123.66;;;1.99;100.00
53514;BME280;39768;54.148;12.174;2023-01-26T04:56:02;102115.97;;;1.83;100.00
53514;BME280;39768;54.148;12.174;2023-01-26T05:00:05;102118.22;;;1.94;100.00
53514;BME280;39768;54.148;12.174;2023-01-26T05:04:09;102111.91;;;1.89;100.00
53514;BME280;39768;54.148;12.174;2023-01-26T05:08:13;102111.25;;;1.74;100.00
53514;BME280;39768;54.148;12.174;2023-01-26T05:12:15;102120.59;;;2.09;100.00
53514;BME280;39768;54.148;12.174;2023-01-26T05:16:55;102125.97;;;1.91;100.00
53514;BME280;39768;54.148;12.174;2023-01-26T05:21:11;102116.91;;;2.04;100.00
53514;BME280;39768;54.148;12.174;2023-01-26T05:25:18;102120.75;;;2.12;100.00
53514;BME280;39768;54.148;12.174;2023-01-26T05:29:26;102112.81;;;2.10;100.00
53514;BME280;39768;54.148;12.174;2023-01-26T05:33:27;102100.50;;;2.29;100.00
53514;BME280;39768;54.148;12.174;2023-01-26T05:37:29;102101.06;;;2.01;100.00
53514;BME280;39768;54.148;12.174;2023-01-26T05:41:31;102113.59;;;2.29;100.00
53514;BME280;39768;54.148;12.174;2023-01-26T05:45:51;102122.00;;;2.01;100.00
53514;BME280;39768;54.148;12.174;2023-01-26T05:49:54;102119.56;;;1.85;100.00
53514;BME280;39768;54.148;12.174;2023-01-26T05:54:00;102123.59;;;1.97;100.00
53514;BME280;39768;54.148;12.174;2023-01-26T05:58:02;102127.41;;;2.04;100.00
53514;BME280;39768;54.148;12.174;2023-01-26T06:02:04;102121.50;;;1.89;100.00
53514;BME280;39768;54.148;12.174;2023-01-26T06:06:06;102116.13;;;1.86;100.00
53514;BME280;39768;54.148;12.174;2023-01-26T06:10:16;102124.66;;;1.82;100.00
53514;BME280;39768;54.148;12.174;2023-01-26T06:14:30;102125.47;;;2.00;100.00
53514;BME280;39768;54.148;12.174;2023-01-26T06:18:32;102117.88;;;2.06;100.00
53514;BME280;39768;54.148;12.174;2023-01-26T06:22:34;102131.63;;;2.21;100.00
53514;BME280;39768;54.148;12.174;2023-01-26T06:26:35;102130.53;;;2.16;100.00
53514;BME280;39768;54.148;12.174;2023-01-26T06:30:37;102142.69;;;1.95;100.00
53514;BME280;39768;54.148;12.174;2023-01-26T06:34:44;102133.91;;;1.73;100.00
53514;BME280;39768;54.148;12.174;2023-01-26T06:38:47;102124.41;;;1.75;100.00
53514;BME280;39768;54.148;12.174;2023-01-26T06:42:50;102137.81;;;1.83;100.00
53514;BME280;39768;54.148;12.174;2023-01-26T06:46:53;102149.09;;;2.01;100.00
53514;BME280;39768;54.148;12.174;2023-01-26T06:51:41;102137.03;;;2.05;100.00
53514;BME280;39768;54.148;12.174;2023-01-26T06:55:44;102133.34;;;1.81;100.00
53514;BME280;39768;54.148;12.174;2023-01-26T06:59:59;102132.16;;;1.93;100.00
53514;BME280;39768;54.148;12.174;2023-01-26T07:04:09;102138.69;;;2.24;100.00
53514;BME280;39768;54.148;12.174;2023-01-26T07:08:11;102148.25;;;2.22;100.00
53514;BME280;39768;54.148;12.174;2023-01-26T07:12:12;102151.03;;;2.05;100.00
53514;BME280;39768;54.148;12.174;2023-01-26T07:16:15;102144.72;;;2.21;100.00
53514;BME280;39768;54.148;12.174;2023-01-26T07:20:17;102142.69;;;2.35;100.00
53514;BME280;39768;54.148;12.174;2023-01-26T07:24:18;102142.66;;;2.56;100.00
53514;BME280;39768;54.148;12.174;2023-01-26T07:28:22;102138.19;;;2.53;100.00
53514;BME280;39768;54.148;12.174;2023-01-26T07:32:23;102144.59;;;2.60;100.00
53514;BME280;39768;54.148;12.174;2023-01-26T07:36:25;102136.09;;;2.65;100.00
53514;BME280;39768;54.148;12.174;2023-01-26T07:40:26;102123.56;;;2.58;100.00
53514;BME280;39768;54.148;12.174;2023-01-26T07:44:28;102127.34;;;2.44;100.00
53514;BME280;39768;54.148;12.174;2023-01-26T07:48:29;102133.13;;;2.58;100.00
53514;BME280;39768;54.148;12.174;2023-01-26T07:52:31;102148.09;;;2.60;100.00
53514;BME280;39768;54.148;12.174;2023-01-26T07:56:33;102146.88;;;2.73;100.00
53514;BME280;39768;54.148;12.174;2023-01-26T08:00:35;102137.97;;;2.69;100.00
53514;BME280;39768;54.148;12.174;2023-01-26T08:04:36;102133.75;;;2.73;100.00
53514;BME280;39768;54.148;12.174;2023-01-26T08:08:38;102140.94;;;2.77;100.00
53514;BME280;39768;54.148;12.174;2023-01-26T08:12:42;102142.94;;;2.62;100.00
53514;BME280;39768;54.148;12.174;2023-01-26T08:16:44;102143.97;;;2.65;100.00
53514;BME280;39768;54.148;12.174;2023-01-26T08:20:50;102152.31;;;2.57;100.00
53514;BME280;39768;54.148;12.174;2023-01-26T08:24:52;102145.06;;;2.72;100.00
53514;BME280;39768;54.148;12.174;2023-01-26T08:28:53;102152.19;;;2.74;100.00
53514;BME280;39768;54.148;12.174;2023-01-26T08:32:55;102167.28;;;2.59;100.00
53514;BME280;39768;54.148;12.174;2023-01-26T08:36:56;102162.03;;;2.59;100.00
53514;BME280;39768;54.148;12.174;2023-01-26T08:40:58;102151.81;;;2.65;100.00
53514;BME280;39768;54.148;12.174;2023-01-26T08:45:00;102150.72;;;3.03;100.00
53514;BME280;39768;54.148;12.174;2023-01-26T08:49:01;102158.22;;;2.51;100.00
53514;BME280;39768;54.148;12.174;2023-01-26T08:53:03;102158.59;;;2.60;100.00
53514;BME280;39768;54.148;12.174;2023-01-26T08:57:04;102148.38;;;2.45;100.00
53514;BME280;39768;54.148;12.174;2023-01-26T09:01:10;102150.59;;;2.78;100.00
53514;BME280;39768;54.148;12.174;2023-01-26T09:05:11;102153.78;;;2.71;100.00
53514;BME280;39768;54.148;12.174;2023-01-26T09:09:13;102143.56;;;2.77;100.00
53514;BME280;39768;54.148;12.174;2023-01-26T09:13:14;102136.56;;;2.77;100.00
53514;BME280;39768;54.148;12.174;2023-01-26T09:17:16;102150.94;;;2.87;100.00
53514;BME280;39768;54.148;12.174;2023-01-26T09:21:18;102147.97;;;3.00;100.00
53514;BME280;39768;54.148;12.174;2023-01-26T09:25:20;102139.88;;;2.94;100.00
53514;BME280;39768;54.148;12.174;2023-01-26T09:29:21;102146.72;;;2.91;100.00
53514;BME280;39768;54.148;12.174;2023-01-26T09:33:23;102142.03;;;2.83;100.00
53514;BME280;39768;54.148;12.174;2023-01-26T09:37:25;102142.56;;;2.96;100.00
53514;BME280;39768;54.148;12.174;2023-01-26T09:41:44;102141.47;;;3.13;100.00
53514;BME280;39768;54.148;12.174;2023-01-26T09:50:09;102133.53;;;3.58;100.00
53514;BME280;39768;54.148;12.174;2023-01-26T09:54:25;102131.34;;;3.68;100.00
53514;BME280;39768;54.148;12.174;2023-01-26T09:58:39;102122.41;;;3.88;100.00
53514;BME280;39768;54.148;12.174;2023-01-26T10:03:15;102115.94;;;3.79;100.00
53514;BME280;39768;54.148;12.174;2023-01-26T10:07:19;102120.97;;;3.97;100.00
53514;BME280;39768;54.148;12.174;2023-01-26T10:11:33;102120.63;;;3.87;100.00
53514;BME280;39768;54.148;12.174;2023-01-26T10:15:40;102125.44;;;3.75;100.00
53514;BME280;39768;54.148;12.174;2023-01-26T10:19:51;102125.09;;;3.90;100.00
53514;BME280;39768;54.148;12.174;2023-01-26T10:23:58;102115.19;;;4.07;100.00
53514;BME280;39768;54.148;12.174;2023-01-26T10:28:11;102126.72;;;3.86;100.00
53514;BME280;39768;54.148;12.174;2023-01-26T10:32:16;102109.22;;;3.87;100.00
53514;BME280;39768;54.148;12.174;2023-01-26T10:36:18;102106.41;;;4.06;100.00
53514;BME280;39768;54.148;12.174;2023-01-26T10:40:19;102101.50;;;3.92;100.00
53514;BME280;39768;54.148;12.174;2023-01-26T10:44:27;102103.25;;;4.16;100.00
53514;BME280;39768;54.148;12.174;2023-01-26T10:48:32;102096.44;;;3.96;100.00
53514;BME280;39768;54.148;12.174;2023-01-26T10:52:34;102088.06;;;3.82;100.00
53514;BME280;39768;54.148;12.174;2023-01-26T10:56:36;102089.31;;;3.94;100.00
53514;BME280;39768;54.148;12.174;2023-01-26T11:00:39;102095.06;;;3.82;100.00
53514;BME280;39768;54.148;12.174;2023-01-26T11:13:18;102080.16;;;4.33;100.00
53514;BME280;39768;54.148;12.174;2023-01-26T11:17:24;102075.81;;;4.08;100.00
53514;BME280;39768;54.148;12.174;2023-01-26T11:34:39;102084.66;;;4.10;100.00
53514;BME280;39768;54.148;12.174;2023-01-26T11:43:10;102069.59;;;4.32;100.00
53514;BME280;39768;54.148;12.174;2023-01-26T11:47:33;102064.88;;;4.21;100.00
53514;BME280;39768;54.148;12.174;2023-01-26T12:00:11;102041.50;;;4.29;100.00
53514;BME280;39768;54.148;12.174;2023-01-26T12:04:32;102040.38;;;4.49;100.00
53514;BME280;39768;54.148;12.174;2023-01-26T12:08:47;102035.69;;;4.68;100.00
53514;BME280;39768;54.148;12.174;2023-01-26T12:13:00;102034.94;;;5.00;100.00
53514;BME280;39768;54.148;12.174;2023-01-26T12:17:17;102033.44;;;4.80;100.00
53514;BME280;39768;54.148;12.174;2023-01-26T12:21:25;102006.00;;;4.72;100.00
53514;BME280;39768;54.148;12.174;2023-01-26T12:25:35;102010.22;;;4.67;100.00
53514;BME280;39768;54.148;12.174;2023-01-26T12:29:50;102016.81;;;4.52;100.00
53514;BME280;39768;54.148;12.174;2023-01-26T12:33:54;102007.19;;;4.53;100.00
53514;BME280;39768;54.148;12.174;2023-01-26T12:38:52;102007.75;;;4.71;100.00
53514;BME280;39768;54.148;12.174;2023-01-26T12:47:06;102009.53;;;4.44;100.00
53514;BME280;39768;54.148;12.174;2023-01-26T12:51:15;102002.53;;;4.73;100.00
53514;BME280;39768;54.148;12.174;2023-01-26T12:55:25;102000.38;;;4.88;100.00
53514;BME280;39768;54.148;12.174;2023-01-26T12:59:34;101990.81;;;4.91;100.00
53514;BME280;39768;54.148;12.174;2023-01-26T13:03:57;101997.78;;;4.89;100.00
53514;BME280;39768;54.148;12.174;2023-01-26T13:12:51;101985.69;;;4.96;100.00
53514;BME280;39768;54.148;12.174;2023-01-26T13:16:53;101997.97;;;5.27;100.00
53514;BME280;39768;54.148;12.174;2023-01-26T13:20:54;101983.25;;;5.35;100.00
53514;BME280;39768;54.148;12.174;2023-01-26T13:29:25;101990.13;;;5.28;100.00
53514;BME280;39768;54.148;12.174;2023-01-26T13:33:33;101991.69;;;5.22;100.00
53514;BME280;39768;54.148;12.174;2023-01-26T13:37:43;102003.34;;;5.00;100.00
53514;BME280;39768;54.148;12.174;2023-01-26T13:41:48;102004.94;;;4.95;100.00
53514;BME280;39768;54.148;12.174;2023-01-26T13:46:30;102002.16;;;5.20;100.00
53514;BME280;39768;54.148;12.174;2023-01-26T13:50:35;102000.38;;;5.18;100.00
53514;BME280;39768;54.148;12.174;2023-01-26T13:54:40;102008.25;;;5.18;100.00
53514;BME280;39768;54.148;12.174;2023-01-26T13:58:42;102015.03;;;5.41;100.00
53514;BME280;39768;54.148;12.174;2023-01-26T14:02:47;102021.03;;;5.04;100.00
53514;BME280;39768;54.148;12.174;2023-01-26T14:07:06;102028.72;;;5.28;100.00
53514;BME280;39768;54.148;12.174;2023-01-26T14:11:25;102030.88;;;5.11;100.00
53514;BME280;39768;54.148;12.174;2023-01-26T14:15:29;102041.84;;;5.26;100.00
53514;BME280;39768;54.148;12.174;2023-01-26T14:19:39;102040.00;;;5.24;100.00
53514;BME280;39768;54.148;12.174;2023-01-26T14:23:41;102039.94;;;5.22;100.00
53514;BME280;39768;54.148;12.174;2023-01-26T14:27:42;102035.63;;;5.24;100.00
53514;BME280;39768;54.148;12.174;2023-01-26T14:31:45;102041.44;;;5.13;100.00
53514;BME280;39768;54.148;12.174;2023-01-26T14:36:01;102044.47;;;4.96;100.00
53514;BME280;39768;54.148;12.174;2023-01-26T14:40:21;102038.00;;;5.15;100.00
53514;BME280;39768;54.148;12.174;2023-01-26T14:44:23;102043.94;;;5.08;100.00
53514;BME280;39768;54.148;12.174;2023-01-26T14:48:30;102037.78;;;5.08;100.00
53514;BME280;39768;54.148;12.174;2023-01-26T14:52:35;102036.72;;;5.31;100.00
53514;BME280;39768;54.148;12.174;2023-01-26T14:56:39;102044.56;;;5.29;100.00
53514;BME280;39768;54.148;12.174;2023-01-26T15:00:41;102038.66;;;5.38;100.00
53514;BME280;39768;54.148;12.174;2023-01-26T15:04:47;102036.66;;;5.29;100.00
53514;BME280;39768;54.148;12.174;2023-01-26T15:08:56;102042.03;;;5.32;100.00
53514;BME280;39768;54.148;12.174;2023-01-26T15:17:05;102049.19;;;5.38;100.00
53514;BME280;39768;54.148;12.174;2023-01-26T15:21:13;102052.75;;;5.40;100.00
53514;BME280;39768;54.148;12.174;2023-01-26T15:25:17;102057.41;;;5.49;100.00
53514;BME280;39768;54.148;12.174;2023-01-26T15:29:33;102052.38;;;5.26;100.00
53514;BME280;39768;54.148;12.174;2023-01-26T15:33:37;102051.78;;;5.37;100.00
53514;BME280;39768;54.148;12.174;2023-01-26T15:37:39;102052.91;;;5.45;100.00
53514;BME280;39768;54.148;12.174;2023-01-26T15:41:42;102054.59;;;5.43;100.00
53514;BME280;39768;54.148;12.174;2023-01-26T15:45:54;102053.81;;;5.15;100.00
53514;BME280;39768;54.148;12.174;2023-01-26T15:49:56;102057.41;;;5.50;100.00
53514;BME280;39768;54.148;12.174;2023-01-26T15:53:58;102059.41;;;5.57;100.00
53514;BME280;39768;54.148;12.174;2023-01-26T15:58:00;102051.81;;;5.70;100.00
53514;BME280;39768;54.148;12.174;2023-01-26T16:02:01;102062.63;;;5.79;100.00
53514;BME280;39768;54.148;12.174;2023-01-26T16:06:03;102075.34;;;5.62;100.00
53514;BME280;39768;54.148;12.174;2023-01-26T16:10:05;102076.22;;;5.62;100.00
53514;BME280;39768;54.148;12.174;2023-01-26T16:14:11;102073.31;;;5.85;100.00
53514;BME280;39768;54.148;12.174;2023-01-26T16:18:13;102069.19;;;5.93;100.00
53514;BME280;39768;54.148;12.174;2023-01-26T16:22:15;102069.78;;;5.84;100.00
53514;BME280;39768;54.148;12.174;2023-01-26T16:26:17;102075.31;;;5.92;100.00
53514;BME280;39768;54.148;12.174;2023-01-26T16:30:20;102076.13;;;5.89;100.00
53514;BME280;39768;54.148;12.174;2023-01-26T16:34:22;102076.16;;;5.91;100.00
53514;BME280;39768;54.148;12.174;2023-01-26T16:38:23;102077.19;;;5.97;100.00
53514;BME280;39768;54.148;12.174;2023-01-26T16:42:25;102071.91;;;5.97;100.00
53514;BME280;39768;54.148;12.174;2023-01-26T16:46:27;102082.09;;;6.17;100.00
53514;BME280;39768;54.148;12.174;2023-01-26T16:50:29;102081.84;;;6.06;100.00
53514;BME280;39768;54.148;12.174;2023-01-26T16:54:32;102087.09;;;6.06;100.00
53514;BME280;39768;54.148;12.174;2023-01-26T16:58:33;102085.09;;;5.97;100.00
53514;BME280;39768;54.148;12.174;2023-01-26T17:02:35;102088.13;;;5.81;100.00
53514;BME280;39768;54.148;12.174;2023-01-26T17:06:37;102094.66;;;5.94;100.00
53514;BME280;39768;54.148;12.174;2023-01-26T17:10:38;102088.41;;;5.89;100.00
53514;BME280;39768;54.148;12.174;2023-01-26T17:15:00;102094.25;;;5.80;100.00
53514;BME280;39768;54.148;12.174;2023-01-26T17:19:01;102092.69;;;5.87;100.00
53514;BME280;39768;54.148;12.174;2023-01-26T17:23:04;102087.88;;;6.02;100.00
53514;BME280;39768;54.148;12.174;2023-01-26T17:27:05;102098.81;;;5.86;100.00
53514;BME280;39768;54.148;12.174;2023-01-26T17:31:09;102115.44;;;6.15;100.00
53514;BME280;39768;54.148;12.174;2023-01-26T17:35:10;102109.16;;;6.44;100.00
53514;BME280;39768;54.148;12.174;2023-01-26T17:39:12;102112.66;;;6.43;100.00
53514;BME280;39768;54.148;12.174;2023-01-26T17:43:14;102094.53;;;6.57;100.00
53514;BME280;39768;54.148;12.174;2023-01-26T17:47:15;102107.00;;;6.28;100.00
53514;BME280;39768;54.148;12.174;2023-01-26T17:51:19;102110.28;;;6.19;100.00
53514;BME280;39768;54.148;12.174;2023-01-26T17:55:21;102113.13;;;6.27;100.00
53514;BME280;39768;54.148;12.174;2023-01-26T17:59:23;102123.28;;;6.46;100.00
53514;BME280;39768;54.148;12.174;2023-01-26T18:03:25;102118.22;;;6.55;100.00
53514;BME280;39768;54.148;12.174;2023-01-26T18:07:27;102117.97;;;6.45;100.00
53514;BME280;39768;54.148;12.174;2023-01-26T18:11:28;102117.97;;;6.45;100.00
53514;BME280;39768;54.148;12.174;2023-01-26T18:15:30;102122.81;;;6.28;100.00
53514;BME280;39768;54.148;12.174;2023-01-26T18:19:31;102121.34;;;6.39;100.00
53514;BME280;39768;54.148;12.174;2023-01-26T18:23:33;102129.66;;;6.56;100.00
53514;BME280;39768;54.148;12.174;2023-01-26T18:27:34;102128.06;;;6.61;100.00
53514;BME280;39768;54.148;12.174;2023-01-26T18:31:37;102132.44;;;6.60;100.00
53514;BME280;39768;54.148;12.174;2023-01-26T18:35:42;102135.38;;;6.72;100.00
53514;BME280;39768;54.148;12.174;2023-01-26T18:39:43;102135.25;;;6.68;100.00
53514;BME280;39768;54.148;12.174;2023-01-26T18:43:45;102138.13;;;6.43;100.00
53514;BME280;39768;54.148;12.174;2023-01-26T18:47:49;102147.75;;;6.41;100.00
53514;BME280;39768;54.148;12.174;2023-01-26T18:51:50;102148.69;;;6.43;100.00
53514;BME280;39768;54.148;12.174;2023-01-26T18:56:04;102149.34;;;6.34;100.00
53514;BME280;39768;54.148;12.174;2023-01-26T19:00:07;102154.22;;;6.52;100.00
53514;BME280;39768;54.148;12.174;2023-01-26T19:04:09;102162.69;;;6.40;100.00
53514;BME280;39768;54.148;12.174;2023-01-26T19:08:11;102159.72;;;6.28;100.00
53514;BME280;39768;54.148;12.174;2023-01-26T19:12:13;102165.00;;;6.28;100.00
53514;BME280;39768;54.148;12.174;2023-01-26T19:16:15;102169.34;;;6.26;100.00
53514;BME280;39768;54.148;12.174;2023-01-26T19:20:17;102159.00;;;6.00;100.00
53514;BME280;39768;54.148;12.174;2023-01-26T19:24:18;102163.53;;;6.39;100.00
53514;BME280;39768;54.148;12.174;2023-01-26T19:28:20;102167.97;;;6.40;100.00
53514;BME280;39768;54.148;12.174;2023-01-26T19:32:21;102172.56;;;6.47;100.00
53514;BME280;39768;54.148;12.174;2023-01-26T19:36:24;102177.16;;;6.21;100.00
53514;BME280;39768;54.148;12.174;2023-01-26T19:40:25;102181.91;;;6.34;100.00
53514;BME280;39768;54.148;12.174;2023-01-26T19:44:27;102175.31;;;6.52;100.00
53514;BME280;39768;54.148;12.174;2023-01-26T19:48:28;102180.84;;;6.28;100.00
53514;BME280;39768;54.148;12.174;2023-01-26T19:52:30;102177.13;;;6.54;100.00
53514;BME280;39768;54.148;12.174;2023-01-26T19:56:33;102178.06;;;6.56;100.00
53514;BME280;39768;54.148;12.174;2023-01-26T20:00:38;102187.56;;;6.50;100.00
53514;BME280;39768;54.148;12.174;2023-01-26T20:04:39;102185.03;;;6.89;100.00
53514;BME280;39768;54.148;12.174;2023-01-26T20:08:41;102192.06;;;6.88;100.00
53514;BME280;39768;54.148;12.174;2023-01-26T20:12:43;102201.00;;;6.93;100.00
53514;BME280;39768;54.148;12.174;2023-01-26T20:16:45;102198.03;;;6.80;100.00
53514;BME280;39768;54.148;12.174;2023-01-26T20:20:50;102200.22;;;6.99;100.00
53514;BME280;39768;54.148;12.174;2023-01-26T20:24:52;102203.34;;;6.83;100.00
53514;BME280;39768;54.148;12.174;2023-01-26T20:28:54;102207.91;;;6.88;100.00
53514;BME280;39768;54.148;12.174;2023-01-26T20:32:59;102212.75;;;6.71;100.00
53514;BME280;39768;54.148;12.174;2023-01-26T20:37:02;102213.63;;;7.06;100.00
53514;BME280;39768;54.148;12.174;2023-01-26T20:41:06;102225.00;;;7.04;100.00
53514;BME280;39768;54.148;12.174;2023-01-26T20:45:08;102218.34;;;6.49;100.00
53514;BME280;39768;54.148;12.174;2023-01-26T20:49:12;102225.88;;;7.03;100.00
53514;BME280;39768;54.148;12.174;2023-01-26T20:53:14;102226.16;;;6.46;100.00
53514;BME280;39768;54.148;12.174;2023-01-26T20:57:16;102226.28;;;6.85;100.00
53514;BME280;39768;54.148;12.174;2023-01-26T21:01:18;102226.41;;;6.90;100.00
53514;BME280;39768;54.148;12.174;2023-01-26T21:05:19;102226.47;;;6.58;100.00
53514;BME280;39768;54.148;12.174;2023-01-26T21:09:21;102229.09;;;6.57;100.00
53514;BME280;39768;54.148;12.174;2023-01-26T21:13:22;102224.03;;;6.64;100.00
53514;BME280;39768;54.148;12.174;2023-01-26T21:17:24;102221.13;;;6.90;100.00
53514;BME280;39768;54.148;12.174;2023-01-26T21:21:26;102234.53;;;6.63;100.00
53514;BME280;39768;54.148;12.174;2023-01-26T21:25:27;102230.63;;;6.82;100.00
53514;BME280;39768;54.148;12.174;2023-01-26T21:29:29;102231.94;;;6.64;100.00
53514;BME280;39768;54.148;12.174;2023-01-26T21:33:32;102240.22;;;7.14;100.00
53514;BME280;39768;54.148;12.174;2023-01-26T21:37:33;102239.97;;;7.03;100.00
53514;BME280;39768;54.148;12.174;2023-01-26T21:41:35;102239.59;;;7.24;100.00
53514;BME280;39768;54.148;12.174;2023-01-26T21:45:56;102241.56;;;7.33;100.00
53514;BME280;39768;54.148;12.174;2023-01-26T21:49:58;102238.38;;;7.10;100.00
53514;BME280;39768;54.148;12.174;2023-01-26T21:53:59;102246.34;;;7.13;100.00
53514;BME280;39768;54.148;12.174;2023-01-26T21:58:02;102240.84;;;7.04;100.00
53514;BME280;39768;54.148;12.174;2023-01-26T22:02:22;102246.63;;;7.24;100.00
53514;BME280;39768;54.148;12.174;2023-01-26T22:06:24;102252.06;;;6.94;100.00